Terminal Aerodrome Forecast
Issued by NWS Boston, MA

Home | Current Version | Previous Version | Text Only | Print | Product List | Glossary Off
Versions: 1 2 3 4 5 6 7 8 9 10 11 12 13 14 15 16 17 18 19
000 FTUS41 KBOX 270528 TAFORH TAF KORH 270528Z 2706/2806 31006KT 6SM BR BKN035 FM271100 35005KT P6SM SCT025 FM272000 00000KT P6SM BKN035 FM272300 VRB03KT P6SM BKN030=

USA.gov is the U.S. government's official web portal to all federal, state and local government web resources and services.